sensor_id;sensor_type;location;lat;lon;timestamp;temperature;humidity
67572;SHT31;54397;47.506;19.158;2022-11-06T00:00:24;11.86;88.38
67572;SHT31;54397;47.506;19.158;2022-11-06T00:03:49;11.82;88.76
67572;SHT31;54397;47.506;19.158;2022-11-06T00:07:11;11.75;89.01
67572;SHT31;54397;47.506;19.158;2022-11-06T00:10:40;11.73;89.01
67572;SHT31;54397;47.506;19.158;2022-11-06T00:14:04;11.73;88.69
67572;SHT31;54397;47.506;19.158;2022-11-06T00:17:28;11.69;88.80
67572;SHT31;54397;47.506;19.158;2022-11-06T00:20:52;11.72;88.93
67572;SHT31;54397;47.506;19.158;2022-11-06T00:24:14;11.69;88.85
67572;SHT31;54397;47.506;19.158;2022-11-06T00:27:42;11.80;88.61
67572;SHT31;54397;47.506;19.158;2022-11-06T00:31:08;11.79;88.47
67572;SHT31;54397;47.506;19.158;2022-11-06T00:34:32;11.79;88.61
67572;SHT31;54397;47.506;19.158;2022-11-06T00:37:58;11.80;88.52
67572;SHT31;54397;47.506;19.158;2022-11-06T00:41:20;11.79;88.26
67572;SHT31;54397;47.506;19.158;2022-11-06T00:44:42;11.79;88.63
67572;SHT31;54397;47.506;19.158;2022-11-06T00:48:04;11.77;88.57
67572;SHT31;54397;47.506;19.158;2022-11-06T00:51:31;11.72;88.24
67572;SHT31;54397;47.506;19.158;2022-11-06T00:54:56;11.63;88.83
67572;SHT31;54397;47.506;19.158;2022-11-06T00:58:19;11.61;88.89
67572;SHT31;54397;47.506;19.158;2022-11-06T01:01:43;11.65;89.07
67572;SHT31;54397;47.506;19.158;2022-11-06T01:05:09;11.72;89.01
67572;SHT31;54397;47.506;19.158;2022-11-06T01:08:31;11.67;88.89
67572;SHT31;54397;47.506;19.158;2022-11-06T01:11:55;11.70;88.85
67572;SHT31;54397;47.506;19.158;2022-11-06T01:15:35;11.70;88.80
67572;SHT31;54397;47.506;19.158;2022-11-06T01:18:58;11.75;88.38
67572;SHT31;54397;47.506;19.158;2022-11-06T01:22:19;11.77;88.37
67572;SHT31;54397;47.506;19.158;2022-11-06T01:25:41;11.72;88.39
67572;SHT31;54397;47.506;19.158;2022-11-06T01:29:12;11.66;88.77
67572;SHT31;54397;47.506;19.158;2022-11-06T01:32:33;11.75;88.45
67572;SHT31;54397;47.506;19.158;2022-11-06T01:35:57;11.75;88.28
67572;SHT31;54397;47.506;19.158;2022-11-06T01:39:19;11.75;88.37
67572;SHT31;54397;47.506;19.158;2022-11-06T01:42:43;11.69;88.50
67572;SHT31;54397;47.506;19.158;2022-11-06T01:46:04;11.67;88.66
67572;SHT31;54397;47.506;19.158;2022-11-06T01:49:34;11.67;88.73
67572;SHT31;54397;47.506;19.158;2022-11-06T01:52:59;11.77;87.89
67572;SHT31;54397;47.506;19.158;2022-11-06T01:56:23;11.75;87.97
67572;SHT31;54397;47.506;19.158;2022-11-06T01:59:45;11.66;88.30
67572;SHT31;54397;47.506;19.158;2022-11-06T02:03:07;11.59;88.54
67572;SHT31;54397;47.506;19.158;2022-11-06T02:06:32;11.75;87.57
67572;SHT31;54397;47.506;19.158;2022-11-06T02:09:57;11.66;88.05
67572;SHT31;54397;47.506;19.158;2022-11-06T02:17:03;11.70;88.15
67572;SHT31;54397;47.506;19.158;2022-11-06T02:24:02;11.75;87.66
67572;SHT31;54397;47.506;19.158;2022-11-06T02:27:32;11.72;88.07
67572;SHT31;54397;47.506;19.158;2022-11-06T02:31:02;11.70;88.14
67572;SHT31;54397;47.506;19.158;2022-11-06T02:34:28;11.63;88.50
67572;SHT31;54397;47.506;19.158;2022-11-06T02:37:55;11.62;88.50
67572;SHT31;54397;47.506;19.158;2022-11-06T02:41:21;11.63;88.66
67572;SHT31;54397;47.506;19.158;2022-11-06T02:44:50;11.69;88.52
67572;SHT31;54397;47.506;19.158;2022-11-06T02:48:14;11.75;88.13
67572;SHT31;54397;47.506;19.158;2022-11-06T02:51:46;11.76;87.91
67572;SHT31;54397;47.506;19.158;2022-11-06T02:55:09;11.73;87.89
67572;SHT31;54397;47.506;19.158;2022-11-06T02:58:38;11.73;88.05
67572;SHT31;54397;47.506;19.158;2022-11-06T03:02:10;11.69;88.44
67572;SHT31;54397;47.506;19.158;2022-11-06T03:05:38;11.66;88.55
67572;SHT31;54397;47.506;19.158;2022-11-06T03:09:19;11.63;88.72
67572;SHT31;54397;47.506;19.158;2022-11-06T03:12:59;11.63;88.94
67572;SHT31;54397;47.506;19.158;2022-11-06T03:23:44;11.56;89.03
67572;SHT31;54397;47.506;19.158;2022-11-06T03:27:36;11.48;89.18
67572;SHT31;54397;47.506;19.158;2022-11-06T03:31:04;11.51;89.37
67572;SHT31;54397;47.506;19.158;2022-11-06T03:34:31;11.48;89.14
67572;SHT31;54397;47.506;19.158;2022-11-06T03:38:00;11.48;89.48
67572;SHT31;54397;47.506;19.158;2022-11-06T03:41:42;11.49;89.53
67572;SHT31;54397;47.506;19.158;2022-11-06T03:45:13;11.54;89.40
67572;SHT31;54397;47.506;19.158;2022-11-06T03:48:47;11.55;89.08
67572;SHT31;54397;47.506;19.158;2022-11-06T03:52:15;11.63;88.81
67572;SHT31;54397;47.506;19.158;2022-11-06T03:55:46;11.52;89.37
67572;SHT31;54397;47.506;19.158;2022-11-06T03:59:12;11.49;89.35
67572;SHT31;54397;47.506;19.158;2022-11-06T04:02:41;11.46;89.44
67572;SHT31;54397;47.506;19.158;2022-11-06T04:06:39;11.43;89.64
67572;SHT31;54397;47.506;19.158;2022-11-06T04:09:54;11.42;89.71
67572;SHT31;54397;47.506;19.158;2022-11-06T04:13:39;11.42;89.99
67572;SHT31;54397;47.506;19.158;2022-11-06T04:17:23;11.42;89.67
67572;SHT31;54397;47.506;19.158;2022-11-06T04:21:09;11.40;89.74
67572;SHT31;54397;47.506;19.158;2022-11-06T04:32:20;11.51;89.74
67572;SHT31;54397;47.506;19.158;2022-11-06T04:36:16;11.52;89.73
67572;SHT31;54397;47.506;19.158;2022-11-06T04:39:51;11.61;89.58
67572;SHT31;54397;47.506;19.158;2022-11-06T04:46:51;11.59;89.46
67572;SHT31;54397;47.506;19.158;2022-11-06T04:50:16;11.63;89.37
67572;SHT31;54397;47.506;19.158;2022-11-06T04:53:39;11.65;89.37
67572;SHT31;54397;47.506;19.158;2022-11-06T04:57:09;11.63;89.28
67572;SHT31;54397;47.506;19.158;2022-11-06T05:00:31;11.63;89.70
67572;SHT31;54397;47.506;19.158;2022-11-06T05:03:53;11.66;89.41
67572;SHT31;54397;47.506;19.158;2022-11-06T05:07:17;11.63;89.57
67572;SHT31;54397;47.506;19.158;2022-11-06T05:10:41;11.61;89.58
67572;SHT31;54397;47.506;19.158;2022-11-06T05:14:05;11.56;89.86
67572;SHT31;54397;47.506;19.158;2022-11-06T05:17:27;11.56;89.71
67572;SHT31;54397;47.506;19.158;2022-11-06T05:21:01;11.59;89.96
67572;SHT31;54397;47.506;19.158;2022-11-06T05:24:43;11.39;89.20
67572;SHT31;54397;47.506;19.158;2022-11-06T05:28:07;11.46;89.96
67572;SHT31;54397;47.506;19.158;2022-11-06T05:31:32;11.49;90.20
67572;SHT31;54397;47.506;19.158;2022-11-06T05:34:58;11.45;90.34
67572;SHT31;54397;47.506;19.158;2022-11-06T05:38:23;11.51;90.16
67572;SHT31;54397;47.506;19.158;2022-11-06T05:41:52;11.55;90.10
67572;SHT31;54397;47.506;19.158;2022-11-06T05:45:13;11.49;90.05
67572;SHT31;54397;47.506;19.158;2022-11-06T05:48:35;11.51;90.27
67572;SHT31;54397;47.506;19.158;2022-11-06T05:51:57;11.51;90.06
67572;SHT31;54397;47.506;19.158;2022-11-06T05:55:18;11.58;90.09
67572;SHT31;54397;47.506;19.158;2022-11-06T05:58:40;11.63;89.62
67572;SHT31;54397;47.506;19.158;2022-11-06T06:02:01;11.55;90.02
67572;SHT31;54397;47.506;19.158;2022-11-06T06:05:26;11.56;89.93
67572;SHT31;54397;47.506;19.158;2022-11-06T06:08:50;11.58;89.84
67572;SHT31;54397;47.506;19.158;2022-11-06T06:12:14;11.67;89.73
67572;SHT31;54397;47.506;19.158;2022-11-06T06:15:39;11.65;89.73
67572;SHT31;54397;47.506;19.158;2022-11-06T06:19:03;11.56;89.84
67572;SHT31;54397;47.506;19.158;2022-11-06T06:22:24;11.51;90.15
67572;SHT31;54397;47.506;19.158;2022-11-06T06:25:48;11.52;90.47
67572;SHT31;54397;47.506;19.158;2022-11-06T06:29:12;11.52;90.25
67572;SHT31;54397;47.506;19.158;2022-11-06T06:32:36;11.52;90.45
67572;SHT31;54397;47.506;19.158;2022-11-06T06:36:07;11.52;90.07
67572;SHT31;54397;47.506;19.158;2022-11-06T06:39:31;11.52;90.26
67572;SHT31;54397;47.506;19.158;2022-11-06T06:42:58;11.54;89.91
67572;SHT31;54397;47.506;19.158;2022-11-06T06:46:22;11.54;90.33
67572;SHT31;54397;47.506;19.158;2022-11-06T06:49:46;11.55;90.14
67572;SHT31;54397;47.506;19.158;2022-11-06T06:53:07;11.52;90.03
67572;SHT31;54397;47.506;19.158;2022-11-06T06:56:33;11.55;90.35
67572;SHT31;54397;47.506;19.158;2022-11-06T06:59:55;11.58;90.24
67572;SHT31;54397;47.506;19.158;2022-11-06T07:03:16;11.58;90.33
67572;SHT31;54397;47.506;19.158;2022-11-06T07:06:38;11.54;90.36
67572;SHT31;54397;47.506;19.158;2022-11-06T07:10:03;11.63;90.24
67572;SHT31;54397;47.506;19.158;2022-11-06T07:13:25;11.72;89.90
67572;SHT31;54397;47.506;19.158;2022-11-06T07:16:53;11.69;89.95
67572;SHT31;54397;47.506;19.158;2022-11-06T07:20:17;11.62;90.16
67572;SHT31;54397;47.506;19.158;2022-11-06T07:23:41;11.61;90.33
67572;SHT31;54397;47.506;19.158;2022-11-06T07:27:02;11.62;90.40
67572;SHT31;54397;47.506;19.158;2022-11-06T07:30:27;11.61;90.15
67572;SHT31;54397;47.506;19.158;2022-11-06T07:33:48;11.61;90.51
67572;SHT31;54397;47.506;19.158;2022-11-06T07:37:10;11.63;90.05
67572;SHT31;54397;47.506;19.158;2022-11-06T07:40:32;11.65;90.22
67572;SHT31;54397;47.506;19.158;2022-11-06T07:43:57;11.65;89.08
67572;SHT31;54397;47.506;19.158;2022-11-06T07:47:18;11.21;89.80
67572;SHT31;54397;47.506;19.158;2022-11-06T07:50:40;11.03;91.11
67572;SHT31;54397;47.506;19.158;2022-11-06T07:54:04;11.17;91.58
67572;SHT31;54397;47.506;19.158;2022-11-06T07:57:28;11.12;90.96
67572;SHT31;54397;47.506;19.158;2022-11-06T08:00:54;11.34;91.37
67572;SHT31;54397;47.506;19.158;2022-11-06T08:04:16;11.10;90.09
67572;SHT31;54397;47.506;19.158;2022-11-06T08:07:40;11.38;92.05
67572;SHT31;54397;47.506;19.158;2022-11-06T08:11:06;11.07;90.28
67572;SHT31;54397;47.506;19.158;2022-11-06T08:14:28;11.12;90.04
67572;SHT31;54397;47.506;19.158;2022-11-06T08:17:50;11.06;91.05
67572;SHT31;54397;47.506;19.158;2022-11-06T08:21:11;11.07;91.08
67572;SHT31;54397;47.506;19.158;2022-11-06T08:24:36;10.90;90.77
67572;SHT31;54397;47.506;19.158;2022-11-06T08:27:59;12.18;98.32
67572;SHT31;54397;47.506;19.158;2022-11-06T08:31:26;12.73;95.41
67572;SHT31;54397;47.506;19.158;2022-11-06T08:34:48;12.88;90.47
67572;SHT31;54397;47.506;19.158;2022-11-06T08:38:09;12.97;89.95
67572;SHT31;54397;47.506;19.158;2022-11-06T08:41:31;13.27;88.69
67572;SHT31;54397;47.506;19.158;2022-11-06T08:44:55;13.30;83.74
67572;SHT31;54397;47.506;19.158;2022-11-06T08:48:19;12.88;83.91
67572;SHT31;54397;47.506;19.158;2022-11-06T08:51:41;12.65;85.20
67572;SHT31;54397;47.506;19.158;2022-11-06T08:55:07;12.42;86.45
67572;SHT31;54397;47.506;19.158;2022-11-06T08:58:29;12.24;87.30
67572;SHT31;54397;47.506;19.158;2022-11-06T09:01:50;12.18;87.62
67572;SHT31;54397;47.506;19.158;2022-11-06T09:05:15;12.17;87.64
67572;SHT31;54397;47.506;19.158;2022-11-06T09:08:36;12.20;88.32
67572;SHT31;54397;47.506;19.158;2022-11-06T09:12:01;12.20;88.43
67572;SHT31;54397;47.506;19.158;2022-11-06T09:15:24;12.18;88.38
67572;SHT31;54397;47.506;19.158;2022-11-06T09:18:46;12.23;88.27
67572;SHT31;54397;47.506;19.158;2022-11-06T09:22:08;12.30;88.16
67572;SHT31;54397;47.506;19.158;2022-11-06T09:25:30;12.30;88.30
67572;SHT31;54397;47.506;19.158;2022-11-06T09:28:51;12.28;88.33
67572;SHT31;54397;47.506;19.158;2022-11-06T09:32:15;12.35;88.09
67572;SHT31;54397;47.506;19.158;2022-11-06T09:35:37;12.48;88.22
67572;SHT31;54397;47.506;19.158;2022-11-06T09:38:58;12.51;88.75
67572;SHT31;54397;47.506;19.158;2022-11-06T09:49:51;13.20;92.65
67572;SHT31;54397;47.506;19.158;2022-11-06T09:53:17;13.72;90.83
67572;SHT31;54397;47.506;19.158;2022-11-06T09:56:41;14.01;89.22
67572;SHT31;54397;47.506;19.158;2022-11-06T10:00:09;14.33;87.57
67572;SHT31;54397;47.506;19.158;2022-11-06T10:03:39;14.61;86.87
67572;SHT31;54397;47.506;19.158;2022-11-06T10:07:16;14.43;81.65
67572;SHT31;54397;47.506;19.158;2022-11-06T10:25:16;13.36;84.19
67572;SHT31;54397;47.506;19.158;2022-11-06T10:28:52;13.31;85.33
67572;SHT31;54397;47.506;19.158;2022-11-06T10:36:10;13.37;85.98
67572;SHT31;54397;47.506;19.158;2022-11-06T10:39:37;13.40;85.44
67572;SHT31;54397;47.506;19.158;2022-11-06T10:43:44;13.37;85.44
67572;SHT31;54397;47.506;19.158;2022-11-06T10:47:32;13.33;85.16
67572;SHT31;54397;47.506;19.158;2022-11-06T10:58:16;13.23;84.54
67572;SHT31;54397;47.506;19.158;2022-11-06T11:01:38;13.30;84.81
67572;SHT31;54397;47.506;19.158;2022-11-06T11:05:06;13.28;85.22
67572;SHT31;54397;47.506;19.158;2022-11-06T11:08:43;13.28;85.02
67572;SHT31;54397;47.506;19.158;2022-11-06T11:12:21;13.27;84.73
67572;SHT31;54397;47.506;19.158;2022-11-06T11:15:46;13.28;85.37
67572;SHT31;54397;47.506;19.158;2022-11-06T11:22:39;13.31;85.01
67572;SHT31;54397;47.506;19.158;2022-11-06T11:26:27;13.18;84.70
67572;SHT31;54397;47.506;19.158;2022-11-06T11:29:52;13.24;85.36
67572;SHT31;54397;47.506;19.158;2022-11-06T11:33:19;13.30;85.54
67572;SHT31;54397;47.506;19.158;2022-11-06T11:36:51;13.40;85.18
67572;SHT31;54397;47.506;19.158;2022-11-06T11:40:34;13.48;85.13
67572;SHT31;54397;47.506;19.158;2022-11-06T11:44:04;13.57;84.75
67572;SHT31;54397;47.506;19.158;2022-11-06T11:47:26;13.59;84.71
67572;SHT31;54397;47.506;19.158;2022-11-06T11:50:50;13.64;84.41
67572;SHT31;54397;47.506;19.158;2022-11-06T11:57:33;13.76;84.15
67572;SHT31;54397;47.506;19.158;2022-11-06T12:01:01;13.86;84.10
67572;SHT31;54397;47.506;19.158;2022-11-06T12:04:30;13.85;81.79
67572;SHT31;54397;47.506;19.158;2022-11-06T12:07:56;14.12;80.70
67572;SHT31;54397;47.506;19.158;2022-11-06T12:11:21;14.33;81.06
67572;SHT31;54397;47.506;19.158;2022-11-06T12:14:44;14.26;79.26
67572;SHT31;54397;47.506;19.158;2022-11-06T12:18:10;13.90;79.73
67572;SHT31;54397;47.506;19.158;2022-11-06T12:21:37;14.10;81.85
67572;SHT31;54397;47.506;19.158;2022-11-06T12:25:15;14.36;81.31
67572;SHT31;54397;47.506;19.158;2022-11-06T12:28:39;14.45;78.20
67572;SHT31;54397;47.506;19.158;2022-11-06T12:39:22;14.26;80.05
67572;SHT31;54397;47.506;19.158;2022-11-06T12:47:04;14.24;81.03
67572;SHT31;54397;47.506;19.158;2022-11-06T12:50:49;14.30;81.34
67572;SHT31;54397;47.506;19.158;2022-11-06T12:57:57;14.40;79.62
67572;SHT31;54397;47.506;19.158;2022-11-06T13:12:21;14.09;79.90
67572;SHT31;54397;47.506;19.158;2022-11-06T13:20:15;14.20;80.69
67572;SHT31;54397;47.506;19.158;2022-11-06T13:23:42;14.20;79.93
67572;SHT31;54397;47.506;19.158;2022-11-06T13:30:52;13.72;80.19
67572;SHT31;54397;47.506;19.158;2022-11-06T13:34:19;13.74;81.82
67572;SHT31;54397;47.506;19.158;2022-11-06T13:37:45;13.72;82.62
67572;SHT31;54397;47.506;19.158;2022-11-06T13:41:13;13.75;82.85
67572;SHT31;54397;47.506;19.158;2022-11-06T13:44:37;13.75;82.67
67572;SHT31;54397;47.506;19.158;2022-11-06T13:51:53;13.74;82.42
67572;SHT31;54397;47.506;19.158;2022-11-06T14:02:39;13.72;82.11
67572;SHT31;54397;47.506;19.158;2022-11-06T14:06:13;13.72;82.39
67572;SHT31;54397;47.506;19.158;2022-11-06T14:09:43;13.62;80.29
67572;SHT31;54397;47.506;19.158;2022-11-06T14:13:05;13.66;81.53
67572;SHT31;54397;47.506;19.158;2022-11-06T14:16:32;13.65;82.48
67572;SHT31;54397;47.506;19.158;2022-11-06T14:26:49;13.59;81.47
67572;SHT31;54397;47.506;19.158;2022-11-06T14:34:33;13.48;82.47
67572;SHT31;54397;47.506;19.158;2022-11-06T14:38:29;13.47;83.18
67572;SHT31;54397;47.506;19.158;2022-11-06T14:41:54;13.43;82.91
67572;SHT31;54397;47.506;19.158;2022-11-06T14:45:19;13.38;82.65
67572;SHT31;54397;47.506;19.158;2022-11-06T14:48:43;13.34;82.34
67572;SHT31;54397;47.506;19.158;2022-11-06T14:52:08;13.30;83.28
67572;SHT31;54397;47.506;19.158;2022-11-06T14:55:32;13.28;83.48
67572;SHT31;54397;47.506;19.158;2022-11-06T14:59:25;13.23;83.53
67572;SHT31;54397;47.506;19.158;2022-11-06T15:02:48;13.21;83.65
67572;SHT31;54397;47.506;19.158;2022-11-06T15:09:45;13.17;83.32
67572;SHT31;54397;47.506;19.158;2022-11-06T15:20:14;13.11;83.12
67572;SHT31;54397;47.506;19.158;2022-11-06T15:27:16;13.04;83.16
67572;SHT31;54397;47.506;19.158;2022-11-06T15:30:44;13.04;83.03
67572;SHT31;54397;47.506;19.158;2022-11-06T15:34:15;13.03;83.00
67572;SHT31;54397;47.506;19.158;2022-11-06T15:38:34;13.04;83.47
67572;SHT31;54397;47.506;19.158;2022-11-06T15:41:27;13.06;83.63
67572;SHT31;54397;47.506;19.158;2022-11-06T15:44:49;13.06;83.52
67572;SHT31;54397;47.506;19.158;2022-11-06T15:48:21;13.07;83.74
67572;SHT31;54397;47.506;19.158;2022-11-06T15:51:57;13.03;83.87
67572;SHT31;54397;47.506;19.158;2022-11-06T15:55:27;13.00;84.46
67572;SHT31;54397;47.506;19.158;2022-11-06T15:59:12;12.90;85.09
67572;SHT31;54397;47.506;19.158;2022-11-06T16:06:13;12.80;85.50
67572;SHT31;54397;47.506;19.158;2022-11-06T16:09:41;12.75;85.45
67572;SHT31;54397;47.506;19.158;2022-11-06T16:13:03;12.75;85.12
67572;SHT31;54397;47.506;19.158;2022-11-06T16:16:41;12.65;85.35
67572;SHT31;54397;47.506;19.158;2022-11-06T16:20:12;12.59;86.05
67572;SHT31;54397;47.506;19.158;2022-11-06T16:23:42;12.61;85.92
67572;SHT31;54397;47.506;19.158;2022-11-06T16:27:05;12.53;86.40
67572;SHT31;54397;47.506;19.158;2022-11-06T16:30:29;12.44;86.66
67572;SHT31;54397;47.506;19.158;2022-11-06T16:33:59;12.42;86.32
67572;SHT31;54397;47.506;19.158;2022-11-06T16:40:51;12.37;86.45
67572;SHT31;54397;47.506;19.158;2022-11-06T16:51:56;12.40;87.24
67572;SHT31;54397;47.506;19.158;2022-11-06T16:55:23;12.38;87.35
67572;SHT31;54397;47.506;19.158;2022-11-06T16:58:52;12.34;86.87
67572;SHT31;54397;47.506;19.158;2022-11-06T17:02:23;12.30;86.75
67572;SHT31;54397;47.506;19.158;2022-11-06T17:05:56;12.30;86.66
67572;SHT31;54397;47.506;19.158;2022-11-06T17:12:47;12.24;86.64
67572;SHT31;54397;47.506;19.158;2022-11-06T17:16:14;12.21;87.22
67572;SHT31;54397;47.506;19.158;2022-11-06T17:19:39;12.17;87.01
67572;SHT31;54397;47.506;19.158;2022-11-06T17:23:03;12.11;87.22
67572;SHT31;54397;47.506;19.158;2022-11-06T17:26:27;12.16;86.86
67572;SHT31;54397;47.506;19.158;2022-11-06T17:29:50;12.04;87.08
67572;SHT31;54397;47.506;19.158;2022-11-06T17:33:12;12.10;87.13
67572;SHT31;54397;47.506;19.158;2022-11-06T17:36:37;12.10;86.74
67572;SHT31;54397;47.506;19.158;2022-11-06T17:39:59;12.07;87.30
67572;SHT31;54397;47.506;19.158;2022-11-06T17:43:23;12.01;87.43
67572;SHT31;54397;47.506;19.158;2022-11-06T17:46:50;12.04;87.73
67572;SHT31;54397;47.506;19.158;2022-11-06T17:50:12;12.13;86.74
67572;SHT31;54397;47.506;19.158;2022-11-06T17:53:33;12.23;86.11
67572;SHT31;54397;47.506;19.158;2022-11-06T17:56:59;12.17;86.02
67572;SHT31;54397;47.506;19.158;2022-11-06T18:00:21;12.05;87.21
67572;SHT31;54397;47.506;19.158;2022-11-06T18:03:45;11.97;87.54
67572;SHT31;54397;47.506;19.158;2022-11-06T18:07:06;11.97;87.47
67572;SHT31;54397;47.506;19.158;2022-11-06T18:10:28;11.87;87.51
67572;SHT31;54397;47.506;19.158;2022-11-06T18:13:51;11.84;87.65
67572;SHT31;54397;47.506;19.158;2022-11-06T18:17:13;11.89;87.37
67572;SHT31;54397;47.506;19.158;2022-11-06T18:20:42;11.93;86.36
67572;SHT31;54397;47.506;19.158;2022-11-06T18:24:04;11.79;86.85
67572;SHT31;54397;47.506;19.158;2022-11-06T18:27:26;11.72;87.47
67572;SHT31;54397;47.506;19.158;2022-11-06T18:30:47;11.67;86.70
67572;SHT31;54397;47.506;19.158;2022-11-06T18:34:10;11.56;86.73
67572;SHT31;54397;47.506;19.158;2022-11-06T18:37:40;11.61;86.63
67572;SHT31;54397;47.506;19.158;2022-11-06T18:41:15;11.56;86.73
67572;SHT31;54397;47.506;19.158;2022-11-06T18:44:37;11.52;87.18
67572;SHT31;54397;47.506;19.158;2022-11-06T18:48:01;11.62;86.69
67572;SHT31;54397;47.506;19.158;2022-11-06T18:51:27;11.67;86.16
67572;SHT31;54397;47.506;19.158;2022-11-06T18:54:56;11.72;85.51
67572;SHT31;54397;47.506;19.158;2022-11-06T18:58:21;11.56;86.56
67572;SHT31;54397;47.506;19.158;2022-11-06T19:01:45;11.43;87.12
67572;SHT31;54397;47.506;19.158;2022-11-06T19:05:09;11.38;87.64
67572;SHT31;54397;47.506;19.158;2022-11-06T19:08:36;11.46;87.00
67572;SHT31;54397;47.506;19.158;2022-11-06T19:11:58;11.58;85.90
67572;SHT31;54397;47.506;19.158;2022-11-06T19:15:21;11.51;85.27
67572;SHT31;54397;47.506;19.158;2022-11-06T19:18:43;11.38;86.28
67572;SHT31;54397;47.506;19.158;2022-11-06T19:22:05;11.34;86.55
67572;SHT31;54397;47.506;19.158;2022-11-06T19:25:28;11.32;86.46
67572;SHT31;54397;47.506;19.158;2022-11-06T19:28:50;11.45;85.50
67572;SHT31;54397;47.506;19.158;2022-11-06T19:32:17;11.35;86.05
67572;SHT31;54397;47.506;19.158;2022-11-06T19:35:39;11.28;86.60
67572;SHT31;54397;47.506;19.158;2022-11-06T19:39:00;11.22;86.80
67572;SHT31;54397;47.506;19.158;2022-11-06T19:42:22;11.19;86.38
67572;SHT31;54397;47.506;19.158;2022-11-06T19:45:43;11.21;86.69
67572;SHT31;54397;47.506;19.158;2022-11-06T19:49:07;11.18;87.31
67572;SHT31;54397;47.506;19.158;2022-11-06T19:52:31;11.19;87.57
67572;SHT31;54397;47.506;19.158;2022-11-06T19:56:07;11.21;87.39
67572;SHT31;54397;47.506;19.158;2022-11-06T19:59:31;11.38;92.60
67572;SHT31;54397;47.506;19.158;2022-11-06T20:02:52;12.27;96.22
67572;SHT31;54397;47.506;19.158;2022-11-06T20:06:14;12.56;88.98
67572;SHT31;54397;47.506;19.158;2022-11-06T20:09:41;12.66;86.44
67572;SHT31;54397;47.506;19.158;2022-11-06T20:13:03;12.73;85.96
67572;SHT31;54397;47.506;19.158;2022-11-06T20:16:25;12.63;85.08
67572;SHT31;54397;47.506;19.158;2022-11-06T20:19:48;12.38;81.49
67572;SHT31;54397;47.506;19.158;2022-11-06T20:23:09;12.03;81.18
67572;SHT31;54397;47.506;19.158;2022-11-06T20:26:33;11.66;82.21
67572;SHT31;54397;47.506;19.158;2022-11-06T20:29:55;11.35;83.38
67572;SHT31;54397;47.506;19.158;2022-11-06T20:33:19;11.11;84.61
67572;SHT31;54397;47.506;19.158;2022-11-06T20:36:41;11.06;84.36
67572;SHT31;54397;47.506;19.158;2022-11-06T20:40:03;11.01;84.38
67572;SHT31;54397;47.506;19.158;2022-11-06T20:43:25;10.94;85.07
67572;SHT31;54397;47.506;19.158;2022-11-06T20:46:46;10.96;84.99
67572;SHT31;54397;47.506;19.158;2022-11-06T20:50:08;10.85;85.15
67572;SHT31;54397;47.506;19.158;2022-11-06T20:53:46;10.94;84.59
67572;SHT31;54397;47.506;19.158;2022-11-06T20:57:08;11.00;84.13
67572;SHT31;54397;47.506;19.158;2022-11-06T21:00:29;11.07;83.66
67572;SHT31;54397;47.506;19.158;2022-11-06T21:03:53;10.81;84.54
67572;SHT31;54397;47.506;19.158;2022-11-06T21:07:16;10.64;85.33
67572;SHT31;54397;47.506;19.158;2022-11-06T21:10:37;11.15;94.99
67572;SHT31;54397;47.506;19.158;2022-11-06T21:14:01;11.70;94.05
67572;SHT31;54397;47.506;19.158;2022-11-06T21:17:25;12.08;88.45
67572;SHT31;54397;47.506;19.158;2022-11-06T21:20:46;12.30;86.12
67572;SHT31;54397;47.506;19.158;2022-11-06T21:24:09;12.27;84.82
67572;SHT31;54397;47.506;19.158;2022-11-06T21:27:32;12.08;80.75
67572;SHT31;54397;47.506;19.158;2022-11-06T21:30:53;11.63;81.42
67572;SHT31;54397;47.506;19.158;2022-11-06T21:34:18;11.28;82.53
67572;SHT31;54397;47.506;19.158;2022-11-06T21:37:40;10.97;83.10
67572;SHT31;54397;47.506;19.158;2022-11-06T21:41:06;10.71;83.77
67572;SHT31;54397;47.506;19.158;2022-11-06T21:44:28;10.49;83.69
67572;SHT31;54397;47.506;19.158;2022-11-06T21:47:49;10.35;84.66
67572;SHT31;54397;47.506;19.158;2022-11-06T21:51:14;10.43;84.11
67572;SHT31;54397;47.506;19.158;2022-11-06T21:54:36;10.48;83.02
67572;SHT31;54397;47.506;19.158;2022-11-06T21:58:16;10.48;82.74
67572;SHT31;54397;47.506;19.158;2022-11-06T22:01:41;10.41;82.70
67572;SHT31;54397;47.506;19.158;2022-11-06T22:05:03;10.18;83.73
67572;SHT31;54397;47.506;19.158;2022-11-06T22:08:27;10.01;84.67
67572;SHT31;54397;47.506;19.158;2022-11-06T22:11:51;9.94;84.79
67572;SHT31;54397;47.506;19.158;2022-11-06T22:15:14;9.99;84.36
67572;SHT31;54397;47.506;19.158;2022-11-06T22:18:36;10.15;83.21
67572;SHT31;54397;47.506;19.158;2022-11-06T22:21:58;10.16;82.38
67572;SHT31;54397;47.506;19.158;2022-11-06T22:25:19;9.94;83.48
67572;SHT31;54397;47.506;19.158;2022-11-06T22:28:41;9.88;83.07
67572;SHT31;54397;47.506;19.158;2022-11-06T22:32:03;9.78;83.33
67572;SHT31;54397;47.506;19.158;2022-11-06T22:35:25;9.64;84.66
67572;SHT31;54397;47.506;19.158;2022-11-06T22:38:47;9.57;85.21
67572;SHT31;54397;47.506;19.158;2022-11-06T22:42:08;9.63;85.23
67572;SHT31;54397;47.506;19.158;2022-11-06T22:45:30;9.61;84.53
67572;SHT31;54397;47.506;19.158;2022-11-06T22:48:52;9.78;83.68
67572;SHT31;54397;47.506;19.158;2022-11-06T22:52:14;9.78;83.34
67572;SHT31;54397;47.506;19.158;2022-11-06T22:55:35;9.61;84.17
67572;SHT31;54397;47.506;19.158;2022-11-06T22:59:01;9.44;85.22
67572;SHT31;54397;47.506;19.158;2022-11-06T23:02:23;9.42;85.43
67572;SHT31;54397;47.506;19.158;2022-11-06T23:05:48;9.48;84.85
67572;SHT31;54397;47.506;19.158;2022-11-06T23:09:12;9.50;84.10
67572;SHT31;54397;47.506;19.158;2022-11-06T23:12:34;9.47;85.32
67572;SHT31;54397;47.506;19.158;2022-11-06T23:16:06;9.39;85.65
67572;SHT31;54397;47.506;19.158;2022-11-06T23:19:30;9.35;86.12
67572;SHT31;54397;47.506;19.158;2022-11-06T23:22:56;9.35;86.43
67572;SHT31;54397;47.506;19.158;2022-11-06T23:26:21;9.57;85.14
67572;SHT31;54397;47.506;19.158;2022-11-06T23:29:42;9.60;84.57
67572;SHT31;54397;47.506;19.158;2022-11-06T23:33:04;9.43;85.62
67572;SHT31;54397;47.506;19.158;2022-11-06T23:36:31;9.35;86.30
67572;SHT31;54397;47.506;19.158;2022-11-06T23:39:55;9.46;85.05
67572;SHT31;54397;47.506;19.158;2022-11-06T23:43:17;9.42;85.08
67572;SHT31;54397;47.506;19.158;2022-11-06T23:46:39;9.27;84.14
67572;SHT31;54397;47.506;19.158;2022-11-06T23:50:04;9.50;84.26
67572;SHT31;54397;47.506;19.158;2022-11-06T23:53:29;9.53;83.86
67572;SHT31;54397;47.506;19.158;2022-11-06T23:56:52;9.51;83.91
